sensor_id;sensor_type;location;lat;lon;timestamp;temperature;humidity
3332;DHT22;1678;50.94845400;5.30809100;2022-09-13T00:00:49;17.30;99.90
3332;DHT22;1678;50.94845400;5.30809100;2022-09-13T00:03:18;17.30;99.90
3332;DHT22;1678;50.94845400;5.30809100;2022-09-13T00:05:47;17.30;99.90
3332;DHT22;1678;50.94845400;5.30809100;2022-09-13T00:08:15;17.30;99.90
3332;DHT22;1678;50.94845400;5.30809100;2022-09-13T00:10:44;17.30;99.90
3332;DHT22;1678;50.94845400;5.30809100;2022-09-13T00:13:13;17.30;99.90
3332;DHT22;1678;50.94845400;5.30809100;2022-09-13T00:15:43;17.20;99.90
3332;DHT22;1678;50.94845400;5.30809100;2022-09-13T00:18:12;17.20;99.90
3332;DHT22;1678;50.94845400;5.30809100;2022-09-13T00:20:41;17.20;99.90
3332;DHT22;1678;50.94845400;5.30809100;2022-09-13T00:23:09;17.10;99.90
3332;DHT22;1678;50.94845400;5.30809100;2022-09-13T00:25:38;17.10;99.90
3332;DHT22;1678;50.94845400;5.30809100;2022-09-13T00:28:06;17.10;99.90
3332;DHT22;1678;50.94845400;5.30809100;2022-09-13T00:30:34;17.00;99.90
3332;DHT22;1678;50.94845400;5.30809100;2022-09-13T00:33:02;17.00;99.90
3332;DHT22;1678;50.94845400;5.30809100;2022-09-13T00:35:32;16.90;99.90
3332;DHT22;1678;50.94845400;5.30809100;2022-09-13T00:38:01;16.70;99.90
3332;DHT22;1678;50.94845400;5.30809100;2022-09-13T00:40:29;16.70;99.90
3332;DHT22;1678;50.94845400;5.30809100;2022-09-13T00:42:57;16.60;99.90
3332;DHT22;1678;50.94845400;5.30809100;2022-09-13T00:45:25;16.60;99.90
3332;DHT22;1678;50.94845400;5.30809100;2022-09-13T00:47:56;16.60;99.90
3332;DHT22;1678;50.94845400;5.30809100;2022-09-13T00:50:30;16.60;99.90
3332;DHT22;1678;50.94845400;5.30809100;2022-09-13T00:53:03;16.60;99.90
3332;DHT22;1678;50.94845400;5.30809100;2022-09-13T00:55:37;16.70;99.90
3332;DHT22;1678;50.94845400;5.30809100;2022-09-13T00:58:10;16.70;99.90
3332;DHT22;1678;50.94845400;5.30809100;2022-09-13T01:00:40;16.60;99.90
3332;DHT22;1678;50.94845400;5.30809100;2022-09-13T01:03:11;16.60;99.90
3332;DHT22;1678;50.94845400;5.30809100;2022-09-13T01:05:43;16.70;99.90
3332;DHT22;1678;50.94845400;5.30809100;2022-09-13T01:08:15;16.80;99.90
3332;DHT22;1678;50.94845400;5.30809100;2022-09-13T01:10:49;16.80;99.90
3332;DHT22;1678;50.94845400;5.30809100;2022-09-13T01:13:20;16.80;99.90
3332;DHT22;1678;50.94845400;5.30809100;2022-09-13T01:15:49;16.90;99.90
3332;DHT22;1678;50.94845400;5.30809100;2022-09-13T01:18:18;16.80;99.90
3332;DHT22;1678;50.94845400;5.30809100;2022-09-13T01:21:13;16.90;99.90
3332;DHT22;1678;50.94845400;5.30809100;2022-09-13T01:24:01;16.90;99.90
3332;DHT22;1678;50.94845400;5.30809100;2022-09-13T01:26:50;17.00;99.90
3332;DHT22;1678;50.94845400;5.30809100;2022-09-13T01:29:43;17.10;99.90
3332;DHT22;1678;50.94845400;5.30809100;2022-09-13T01:32:23;17.20;99.90
3332;DHT22;1678;50.94845400;5.30809100;2022-09-13T01:35:03;17.20;99.90
3332;DHT22;1678;50.94845400;5.30809100;2022-09-13T01:37:46;17.30;99.90
3332;DHT22;1678;50.94845400;5.30809100;2022-09-13T01:40:28;17.40;99.90
3332;DHT22;1678;50.94845400;5.30809100;2022-09-13T01:43:18;17.40;99.90
3332;DHT22;1678;50.94845400;5.30809100;2022-09-13T01:45:52;17.40;99.90
3332;DHT22;1678;50.94845400;5.30809100;2022-09-13T01:48:33;17.40;99.90
3332;DHT22;1678;50.94845400;5.30809100;2022-09-13T01:51:08;17.40;99.90
3332;DHT22;1678;50.94845400;5.30809100;2022-09-13T01:53:45;17.40;99.90
3332;DHT22;1678;50.94845400;5.30809100;2022-09-13T01:56:21;17.40;99.90
3332;DHT22;1678;50.94845400;5.30809100;2022-09-13T01:58:54;17.40;99.90
3332;DHT22;1678;50.94845400;5.30809100;2022-09-13T02:01:26;17.50;99.90
3332;DHT22;1678;50.94845400;5.30809100;2022-09-13T02:03:59;17.60;99.90
3332;DHT22;1678;50.94845400;5.30809100;2022-09-13T02:06:31;17.60;99.90
3332;DHT22;1678;50.94845400;5.30809100;2022-09-13T02:09:02;17.60;99.90
3332;DHT22;1678;50.94845400;5.30809100;2022-09-13T02:11:32;17.60;99.90
3332;DHT22;1678;50.94845400;5.30809100;2022-09-13T02:14:05;17.60;99.90
3332;DHT22;1678;50.94845400;5.30809100;2022-09-13T02:16:38;17.60;99.90
3332;DHT22;1678;50.94845400;5.30809100;2022-09-13T02:19:12;17.60;99.90
3332;DHT22;1678;50.94845400;5.30809100;2022-09-13T02:21:43;17.50;99.90
3332;DHT22;1678;50.94845400;5.30809100;2022-09-13T02:24:15;17.50;99.90
3332;DHT22;1678;50.94845400;5.30809100;2022-09-13T02:26:45;17.40;99.90
3332;DHT22;1678;50.94845400;5.30809100;2022-09-13T02:29:18;17.50;99.90
3332;DHT22;1678;50.94845400;5.30809100;2022-09-13T02:31:50;17.50;99.90
3332;DHT22;1678;50.94845400;5.30809100;2022-09-13T02:34:28;17.50;99.90
3332;DHT22;1678;50.94845400;5.30809100;2022-09-13T02:36:59;17.50;99.90
3332;DHT22;1678;50.94845400;5.30809100;2022-09-13T02:39:29;17.40;99.90
3332;DHT22;1678;50.94845400;5.30809100;2022-09-13T02:42:03;17.40;99.90
3332;DHT22;1678;50.94845400;5.30809100;2022-09-13T02:44:40;17.50;99.90
3332;DHT22;1678;50.94845400;5.30809100;2022-09-13T02:47:18;17.40;99.90
3332;DHT22;1678;50.94845400;5.30809100;2022-09-13T02:49:57;17.40;99.90
3332;DHT22;1678;50.94845400;5.30809100;2022-09-13T02:52:33;17.40;99.90
3332;DHT22;1678;50.94845400;5.30809100;2022-09-13T02:55:12;17.30;99.90
3332;DHT22;1678;50.94845400;5.30809100;2022-09-13T02:57:56;17.30;99.90
3332;DHT22;1678;50.94845400;5.30809100;2022-09-13T03:00:27;17.20;99.90
3332;DHT22;1678;50.94845400;5.30809100;2022-09-13T03:02:56;17.20;99.90
3332;DHT22;1678;50.94845400;5.30809100;2022-09-13T03:05:26;17.30;99.90
3332;DHT22;1678;50.94845400;5.30809100;2022-09-13T03:07:54;17.20;99.90
3332;DHT22;1678;50.94845400;5.30809100;2022-09-13T03:10:22;17.20;99.90
3332;DHT22;1678;50.94845400;5.30809100;2022-09-13T03:13:14;17.10;99.90
3332;DHT22;1678;50.94845400;5.30809100;2022-09-13T03:15:57;17.10;99.90
3332;DHT22;1678;50.94845400;5.30809100;2022-09-13T03:18:41;17.20;99.90
3332;DHT22;1678;50.94845400;5.30809100;2022-09-13T03:21:24;17.20;99.90
3332;DHT22;1678;50.94845400;5.30809100;2022-09-13T03:24:04;17.20;99.90
3332;DHT22;1678;50.94845400;5.30809100;2022-09-13T03:26:44;17.10;99.90
3332;DHT22;1678;50.94845400;5.30809100;2022-09-13T03:29:24;17.10;99.90
3332;DHT22;1678;50.94845400;5.30809100;2022-09-13T03:32:02;17.10;99.90
3332;DHT22;1678;50.94845400;5.30809100;2022-09-13T03:34:37;17.10;99.90
3332;DHT22;1678;50.94845400;5.30809100;2022-09-13T03:37:16;17.10;99.90
3332;DHT22;1678;50.94845400;5.30809100;2022-09-13T03:39:51;17.00;99.90
3332;DHT22;1678;50.94845400;5.30809100;2022-09-13T03:42:23;17.00;99.90
3332;DHT22;1678;50.94845400;5.30809100;2022-09-13T03:44:54;17.00;99.90
3332;DHT22;1678;50.94845400;5.30809100;2022-09-13T03:47:26;17.10;99.90
3332;DHT22;1678;50.94845400;5.30809100;2022-09-13T03:49:56;17.00;99.90
3332;DHT22;1678;50.94845400;5.30809100;2022-09-13T03:52:25;17.00;99.90
3332;DHT22;1678;50.94845400;5.30809100;2022-09-13T03:54:54;17.00;99.90
3332;DHT22;1678;50.94845400;5.30809100;2022-09-13T03:57:22;17.00;99.90
3332;DHT22;1678;50.94845400;5.30809100;2022-09-13T03:59:52;17.00;99.90
3332;DHT22;1678;50.94845400;5.30809100;2022-09-13T04:02:22;17.00;99.90
3332;DHT22;1678;50.94845400;5.30809100;2022-09-13T04:04:50;16.90;99.90
3332;DHT22;1678;50.94845400;5.30809100;2022-09-13T04:07:20;16.80;99.90
3332;DHT22;1678;50.94845400;5.30809100;2022-09-13T04:09:50;16.90;99.90
3332;DHT22;1678;50.94845400;5.30809100;2022-09-13T04:12:18;16.90;99.90
3332;DHT22;1678;50.94845400;5.30809100;2022-09-13T04:14:46;16.90;99.90
3332;DHT22;1678;50.94845400;5.30809100;2022-09-13T04:17:14;16.90;99.90
3332;DHT22;1678;50.94845400;5.30809100;2022-09-13T04:19:43;16.90;99.90
3332;DHT22;1678;50.94845400;5.30809100;2022-09-13T04:22:13;17.00;99.90
3332;DHT22;1678;50.94845400;5.30809100;2022-09-13T04:24:41;17.00;99.90
3332;DHT22;1678;50.94845400;5.30809100;2022-09-13T04:27:11;17.00;99.90
3332;DHT22;1678;50.94845400;5.30809100;2022-09-13T04:29:39;17.00;99.90
3332;DHT22;1678;50.94845400;5.30809100;2022-09-13T04:32:07;17.00;99.90
3332;DHT22;1678;50.94845400;5.30809100;2022-09-13T04:34:36;17.00;99.90
3332;DHT22;1678;50.94845400;5.30809100;2022-09-13T04:37:04;16.90;99.90
3332;DHT22;1678;50.94845400;5.30809100;2022-09-13T04:39:32;16.90;99.90
3332;DHT22;1678;50.94845400;5.30809100;2022-09-13T04:42:00;16.90;99.90
3332;DHT22;1678;50.94845400;5.30809100;2022-09-13T04:44:30;16.80;99.90
3332;DHT22;1678;50.94845400;5.30809100;2022-09-13T04:46:59;17.00;99.90
3332;DHT22;1678;50.94845400;5.30809100;2022-09-13T04:49:27;17.00;99.90
3332;DHT22;1678;50.94845400;5.30809100;2022-09-13T04:51:55;16.90;99.90
3332;DHT22;1678;50.94845400;5.30809100;2022-09-13T04:54:23;17.00;99.90
3332;DHT22;1678;50.94845400;5.30809100;2022-09-13T04:56:51;17.10;99.90
3332;DHT22;1678;50.94845400;5.30809100;2022-09-13T04:59:19;17.10;99.90
3332;DHT22;1678;50.94845400;5.30809100;2022-09-13T05:01:49;17.10;99.90
3332;DHT22;1678;50.94845400;5.30809100;2022-09-13T05:04:17;17.10;99.90
3332;DHT22;1678;50.94845400;5.30809100;2022-09-13T05:06:45;17.00;99.90
3332;DHT22;1678;50.94845400;5.30809100;2022-09-13T05:09:14;16.90;99.90
3332;DHT22;1678;50.94845400;5.30809100;2022-09-13T05:11:42;16.90;99.90
3332;DHT22;1678;50.94845400;5.30809100;2022-09-13T05:14:11;16.90;99.90
3332;DHT22;1678;50.94845400;5.30809100;2022-09-13T05:16:39;16.90;99.90
3332;DHT22;1678;50.94845400;5.30809100;2022-09-13T05:19:09;16.90;99.90
3332;DHT22;1678;50.94845400;5.30809100;2022-09-13T05:21:38;17.00;99.90
3332;DHT22;1678;50.94845400;5.30809100;2022-09-13T05:24:06;17.00;99.90
3332;DHT22;1678;50.94845400;5.30809100;2022-09-13T05:26:35;17.10;99.90
3332;DHT22;1678;50.94845400;5.30809100;2022-09-13T05:29:03;17.10;99.90
3332;DHT22;1678;50.94845400;5.30809100;2022-09-13T05:31:33;17.10;99.90
3332;DHT22;1678;50.94845400;5.30809100;2022-09-13T05:34:03;17.10;99.90
3332;DHT22;1678;50.94845400;5.30809100;2022-09-13T05:36:33;17.10;99.90
3332;DHT22;1678;50.94845400;5.30809100;2022-09-13T05:39:01;17.20;99.90
3332;DHT22;1678;50.94845400;5.30809100;2022-09-13T05:41:49;17.10;99.90
3332;DHT22;1678;50.94845400;5.30809100;2022-09-13T05:44:17;17.20;99.90
3332;DHT22;1678;50.94845400;5.30809100;2022-09-13T05:46:46;17.20;99.90
3332;DHT22;1678;50.94845400;5.30809100;2022-09-13T05:49:15;17.20;99.90
3332;DHT22;1678;50.94845400;5.30809100;2022-09-13T05:51:44;17.20;99.90
3332;DHT22;1678;50.94845400;5.30809100;2022-09-13T05:54:12;17.30;99.90
3332;DHT22;1678;50.94845400;5.30809100;2022-09-13T05:56:40;17.40;99.90
3332;DHT22;1678;50.94845400;5.30809100;2022-09-13T05:59:10;17.40;99.90
3332;DHT22;1678;50.94845400;5.30809100;2022-09-13T06:01:39;17.50;99.90
3332;DHT22;1678;50.94845400;5.30809100;2022-09-13T06:04:08;17.50;99.90
3332;DHT22;1678;50.94845400;5.30809100;2022-09-13T06:06:38;17.50;99.90
3332;DHT22;1678;50.94845400;5.30809100;2022-09-13T06:09:10;17.60;99.90
3332;DHT22;1678;50.94845400;5.30809100;2022-09-13T06:11:38;17.60;99.90
3332;DHT22;1678;50.94845400;5.30809100;2022-09-13T06:14:07;17.70;99.90
3332;DHT22;1678;50.94845400;5.30809100;2022-09-13T06:16:35;17.70;99.90
3332;DHT22;1678;50.94845400;5.30809100;2022-09-13T06:19:03;17.80;99.90
3332;DHT22;1678;50.94845400;5.30809100;2022-09-13T06:21:33;17.80;99.90
3332;DHT22;1678;50.94845400;5.30809100;2022-09-13T06:24:01;17.90;99.90
3332;DHT22;1678;50.94845400;5.30809100;2022-09-13T06:26:31;17.80;99.90
3332;DHT22;1678;50.94845400;5.30809100;2022-09-13T06:29:00;17.90;99.90
3332;DHT22;1678;50.94845400;5.30809100;2022-09-13T06:31:28;17.90;99.90
3332;DHT22;1678;50.94845400;5.30809100;2022-09-13T06:33:58;17.90;99.90
3332;DHT22;1678;50.94845400;5.30809100;2022-09-13T06:36:28;18.10;99.90
3332;DHT22;1678;50.94845400;5.30809100;2022-09-13T06:38:56;18.20;99.90
3332;DHT22;1678;50.94845400;5.30809100;2022-09-13T06:41:26;18.10;99.90
3332;DHT22;1678;50.94845400;5.30809100;2022-09-13T06:43:57;18.20;99.90
3332;DHT22;1678;50.94845400;5.30809100;2022-09-13T06:46:26;18.30;99.90
3332;DHT22;1678;50.94845400;5.30809100;2022-09-13T06:48:58;18.30;99.90
3332;DHT22;1678;50.94845400;5.30809100;2022-09-13T06:51:26;18.40;99.90
3332;DHT22;1678;50.94845400;5.30809100;2022-09-13T06:53:55;18.50;99.90
3332;DHT22;1678;50.94845400;5.30809100;2022-09-13T06:56:24;18.60;99.90
3332;DHT22;1678;50.94845400;5.30809100;2022-09-13T06:58:56;18.70;99.90
3332;DHT22;1678;50.94845400;5.30809100;2022-09-13T07:01:26;18.80;99.90
3332;DHT22;1678;50.94845400;5.30809100;2022-09-13T07:03:59;18.90;99.90
3332;DHT22;1678;50.94845400;5.30809100;2022-09-13T07:06:29;19.00;99.90
3332;DHT22;1678;50.94845400;5.30809100;2022-09-13T07:08:59;19.20;99.90
3332;DHT22;1678;50.94845400;5.30809100;2022-09-13T07:11:29;19.30;99.90
3332;DHT22;1678;50.94845400;5.30809100;2022-09-13T07:13:59;19.30;99.90
3332;DHT22;1678;50.94845400;5.30809100;2022-09-13T07:16:29;19.40;99.90
3332;DHT22;1678;50.94845400;5.30809100;2022-09-13T07:18:58;19.40;99.90
3332;DHT22;1678;50.94845400;5.30809100;2022-09-13T07:21:27;19.50;99.90
3332;DHT22;1678;50.94845400;5.30809100;2022-09-13T07:23:55;19.80;99.90
3332;DHT22;1678;50.94845400;5.30809100;2022-09-13T07:26:25;19.80;99.90
3332;DHT22;1678;50.94845400;5.30809100;2022-09-13T07:28:55;19.80;99.90
3332;DHT22;1678;50.94845400;5.30809100;2022-09-13T07:31:26;20.00;99.90
3332;DHT22;1678;50.94845400;5.30809100;2022-09-13T07:33:56;20.10;99.90
3332;DHT22;1678;50.94845400;5.30809100;2022-09-13T07:36:25;20.20;99.90
3332;DHT22;1678;50.94845400;5.30809100;2022-09-13T07:38:53;20.20;99.90
3332;DHT22;1678;50.94845400;5.30809100;2022-09-13T07:41:24;20.30;99.90
3332;DHT22;1678;50.94845400;5.30809100;2022-09-13T07:43:52;20.50;99.90
3332;DHT22;1678;50.94845400;5.30809100;2022-09-13T07:46:22;20.50;99.90
3332;DHT22;1678;50.94845400;5.30809100;2022-09-13T07:48:55;20.60;99.90
3332;DHT22;1678;50.94845400;5.30809100;2022-09-13T07:51:25;20.60;99.90
3332;DHT22;1678;50.94845400;5.30809100;2022-09-13T07:53:55;20.80;99.90
3332;DHT22;1678;50.94845400;5.30809100;2022-09-13T07:56:25;20.80;98.30
3332;DHT22;1678;50.94845400;5.30809100;2022-09-13T07:58:54;20.90;98.70
3332;DHT22;1678;50.94845400;5.30809100;2022-09-13T08:01:24;21.10;96.40
3332;DHT22;1678;50.94845400;5.30809100;2022-09-13T08:03:55;21.30;96.70
3332;DHT22;1678;50.94845400;5.30809100;2022-09-13T08:06:24;21.40;96.40
3332;DHT22;1678;50.94845400;5.30809100;2022-09-13T08:08:53;21.50;94.10
3332;DHT22;1678;50.94845400;5.30809100;2022-09-13T08:11:24;21.50;94.00
3332;DHT22;1678;50.94845400;5.30809100;2022-09-13T08:13:52;21.60;92.80
3332;DHT22;1678;50.94845400;5.30809100;2022-09-13T08:16:22;21.60;91.00
3332;DHT22;1678;50.94845400;5.30809100;2022-09-13T08:18:53;21.80;91.00
3332;DHT22;1678;50.94845400;5.30809100;2022-09-13T08:21:23;21.80;90.10
3332;DHT22;1678;50.94845400;5.30809100;2022-09-13T08:23:54;21.80;88.80
3332;DHT22;1678;50.94845400;5.30809100;2022-09-13T08:26:25;21.80;89.80
3332;DHT22;1678;50.94845400;5.30809100;2022-09-13T08:28:57;22.00;89.60
3332;DHT22;1678;50.94845400;5.30809100;2022-09-13T08:31:26;21.90;88.70
3332;DHT22;1678;50.94845400;5.30809100;2022-09-13T08:33:56;22.20;91.20
3332;DHT22;1678;50.94845400;5.30809100;2022-09-13T08:36:25;22.40;85.70
3332;DHT22;1678;50.94845400;5.30809100;2022-09-13T08:38:55;22.40;83.80
3332;DHT22;1678;50.94845400;5.30809100;2022-09-13T08:41:54;22.40;84.90
3332;DHT22;1678;50.94845400;5.30809100;2022-09-13T08:44:27;22.50;82.40
3332;DHT22;1678;50.94845400;5.30809100;2022-09-13T08:47:01;22.60;82.90
3332;DHT22;1678;50.94845400;5.30809100;2022-09-13T08:49:34;22.70;80.50
3332;DHT22;1678;50.94845400;5.30809100;2022-09-13T08:52:15;22.90;80.20
3332;DHT22;1678;50.94845400;5.30809100;2022-09-13T08:54:46;23.10;81.00
3332;DHT22;1678;50.94845400;5.30809100;2022-09-13T08:57:18;23.20;78.40
3332;DHT22;1678;50.94845400;5.30809100;2022-09-13T08:59:56;23.30;77.60
3332;DHT22;1678;50.94845400;5.30809100;2022-09-13T09:02:42;23.20;77.80
3332;DHT22;1678;50.94845400;5.30809100;2022-09-13T09:05:17;23.40;77.20
3332;DHT22;1678;50.94845400;5.30809100;2022-09-13T09:07:48;23.60;74.80
3332;DHT22;1678;50.94845400;5.30809100;2022-09-13T09:10:20;23.60;73.20
3332;DHT22;1678;50.94845400;5.30809100;2022-09-13T09:12:52;23.70;70.10
3332;DHT22;1678;50.94845400;5.30809100;2022-09-13T09:15:24;23.80;72.40
3332;DHT22;1678;50.94845400;5.30809100;2022-09-13T09:17:57;23.90;71.10
3332;DHT22;1678;50.94845400;5.30809100;2022-09-13T09:20:30;23.90;68.30
3332;DHT22;1678;50.94845400;5.30809100;2022-09-13T09:23:03;23.80;67.70
3332;DHT22;1678;50.94845400;5.30809100;2022-09-13T09:25:33;23.90;69.40
3332;DHT22;1678;50.94845400;5.30809100;2022-09-13T09:28:10;24.10;70.00
3332;DHT22;1678;50.94845400;5.30809100;2022-09-13T09:30:48;24.00;71.30
3332;DHT22;1678;50.94845400;5.30809100;2022-09-13T09:33:33;24.10;70.30
3332;DHT22;1678;50.94845400;5.30809100;2022-09-13T09:36:13;24.20;69.90
3332;DHT22;1678;50.94845400;5.30809100;2022-09-13T09:38:43;24.30;69.40
3332;DHT22;1678;50.94845400;5.30809100;2022-09-13T09:41:16;24.40;64.80
3332;DHT22;1678;50.94845400;5.30809100;2022-09-13T09:43:52;24.60;65.60
3332;DHT22;1678;50.94845400;5.30809100;2022-09-13T09:46:26;24.40;63.20
3332;DHT22;1678;50.94845400;5.30809100;2022-09-13T09:48:59;24.30;65.40
3332;DHT22;1678;50.94845400;5.30809100;2022-09-13T09:51:53;24.50;66.60
3332;DHT22;1678;50.94845400;5.30809100;2022-09-13T09:54:24;24.70;65.50
3332;DHT22;1678;50.94845400;5.30809100;2022-09-13T09:56:54;24.80;64.80
3332;DHT22;1678;50.94845400;5.30809100;2022-09-13T09:59:27;25.10;64.00
3332;DHT22;1678;50.94845400;5.30809100;2022-09-13T10:01:57;25.20;64.80
3332;DHT22;1678;50.94845400;5.30809100;2022-09-13T10:04:27;25.50;62.20
3332;DHT22;1678;50.94845400;5.30809100;2022-09-13T10:07:21;25.70;59.30
3332;DHT22;1678;50.94845400;5.30809100;2022-09-13T10:09:56;26.10;60.80
3332;DHT22;1678;50.94845400;5.30809100;2022-09-13T10:12:26;26.40;57.70
3332;DHT22;1678;50.94845400;5.30809100;2022-09-13T10:15:04;26.30;54.20
3332;DHT22;1678;50.94845400;5.30809100;2022-09-13T10:17:33;26.40;54.50
3332;DHT22;1678;50.94845400;5.30809100;2022-09-13T10:20:04;26.30;55.50
3332;DHT22;1678;50.94845400;5.30809100;2022-09-13T10:23:14;26.20;51.60
3332;DHT22;1678;50.94845400;5.30809100;2022-09-13T10:25:53;26.10;52.40
3332;DHT22;1678;50.94845400;5.30809100;2022-09-13T10:28:23;26.10;52.70
3332;DHT22;1678;50.94845400;5.30809100;2022-09-13T10:30:54;26.00;53.40
3332;DHT22;1678;50.94845400;5.30809100;2022-09-13T10:33:26;26.00;54.90
3332;DHT22;1678;50.94845400;5.30809100;2022-09-13T10:35:57;25.70;54.00
3332;DHT22;1678;50.94845400;5.30809100;2022-09-13T10:38:30;25.60;55.10
3332;DHT22;1678;50.94845400;5.30809100;2022-09-13T10:41:01;25.50;55.20
3332;DHT22;1678;50.94845400;5.30809100;2022-09-13T10:43:31;25.30;56.90
3332;DHT22;1678;50.94845400;5.30809100;2022-09-13T10:46:02;25.50;56.30
3332;DHT22;1678;50.94845400;5.30809100;2022-09-13T10:48:44;25.60;55.00
3332;DHT22;1678;50.94845400;5.30809100;2022-09-13T10:51:21;25.50;54.50
3332;DHT22;1678;50.94845400;5.30809100;2022-09-13T10:54:09;25.80;52.30
3332;DHT22;1678;50.94845400;5.30809100;2022-09-13T10:56:42;25.80;54.00
3332;DHT22;1678;50.94845400;5.30809100;2022-09-13T10:59:16;25.70;51.60
3332;DHT22;1678;50.94845400;5.30809100;2022-09-13T11:02:06;25.80;50.70
3332;DHT22;1678;50.94845400;5.30809100;2022-09-13T11:04:57;25.70;50.70
3332;DHT22;1678;50.94845400;5.30809100;2022-09-13T11:08:11;25.50;50.90
3332;DHT22;1678;50.94845400;5.30809100;2022-09-13T11:10:53;25.50;52.70
3332;DHT22;1678;50.94845400;5.30809100;2022-09-13T11:13:36;25.50;53.80
3332;DHT22;1678;50.94845400;5.30809100;2022-09-13T11:16:22;25.40;55.40
3332;DHT22;1678;50.94845400;5.30809100;2022-09-13T11:19:07;25.30;57.20
3332;DHT22;1678;50.94845400;5.30809100;2022-09-13T11:21:48;25.50;54.80
3332;DHT22;1678;50.94845400;5.30809100;2022-09-13T11:24:30;25.80;52.80
3332;DHT22;1678;50.94845400;5.30809100;2022-09-13T11:27:09;26.10;55.30
3332;DHT22;1678;50.94845400;5.30809100;2022-09-13T11:30:04;26.30;54.40
3332;DHT22;1678;50.94845400;5.30809100;2022-09-13T11:33:03;26.30;51.50
3332;DHT22;1678;50.94845400;5.30809100;2022-09-13T11:35:48;26.00;53.40
3332;DHT22;1678;50.94845400;5.30809100;2022-09-13T11:38:33;26.10;52.70
3332;DHT22;1678;50.94845400;5.30809100;2022-09-13T11:41:11;26.30;52.40
3332;DHT22;1678;50.94845400;5.30809100;2022-09-13T11:43:54;26.20;53.90
3332;DHT22;1678;50.94845400;5.30809100;2022-09-13T11:46:31;26.20;50.80
3332;DHT22;1678;50.94845400;5.30809100;2022-09-13T11:49:20;26.50;47.70
3332;DHT22;1678;50.94845400;5.30809100;2022-09-13T11:52:01;26.70;48.70
3332;DHT22;1678;50.94845400;5.30809100;2022-09-13T11:54:41;26.40;53.60
3332;DHT22;1678;50.94845400;5.30809100;2022-09-13T11:57:18;27.00;55.90
3332;DHT22;1678;50.94845400;5.30809100;2022-09-13T11:59:53;27.10;52.90
3332;DHT22;1678;50.94845400;5.30809100;2022-09-13T12:02:26;26.60;52.50
3332;DHT22;1678;50.94845400;5.30809100;2022-09-13T12:04:58;26.90;56.10
3332;DHT22;1678;50.94845400;5.30809100;2022-09-13T12:07:50;27.20;54.00
3332;DHT22;1678;50.94845400;5.30809100;2022-09-13T12:10:22;27.30;51.80
3332;DHT22;1678;50.94845400;5.30809100;2022-09-13T12:12:53;27.40;52.40
3332;DHT22;1678;50.94845400;5.30809100;2022-09-13T12:15:31;27.40;52.50
3332;DHT22;1678;50.94845400;5.30809100;2022-09-13T12:18:04;27.60;49.10
3332;DHT22;1678;50.94845400;5.30809100;2022-09-13T12:20:35;27.60;49.80
3332;DHT22;1678;50.94845400;5.30809100;2022-09-13T12:23:10;27.80;51.40
3332;DHT22;1678;50.94845400;5.30809100;2022-09-13T12:25:45;27.80;48.40
3332;DHT22;1678;50.94845400;5.30809100;2022-09-13T12:28:20;27.70;51.50
3332;DHT22;1678;50.94845400;5.30809100;2022-09-13T12:30:54;27.60;51.80
3332;DHT22;1678;50.94845400;5.30809100;2022-09-13T12:33:23;27.40;53.10
3332;DHT22;1678;50.94845400;5.30809100;2022-09-13T12:36:08;27.40;53.90
3332;DHT22;1678;50.94845400;5.30809100;2022-09-13T12:39:10;27.20;53.30
3332;DHT22;1678;50.94845400;5.30809100;2022-09-13T12:41:50;27.00;51.40
3332;DHT22;1678;50.94845400;5.30809100;2022-09-13T12:44:39;27.00;54.30
3332;DHT22;1678;50.94845400;5.30809100;2022-09-13T12:47:48;27.10;52.90
3332;DHT22;1678;50.94845400;5.30809100;2022-09-13T12:50:39;27.30;53.80
3332;DHT22;1678;50.94845400;5.30809100;2022-09-13T12:56:23;27.30;51.60
3332;DHT22;1678;50.94845400;5.30809100;2022-09-13T12:59:16;27.40;51.30
3332;DHT22;1678;50.94845400;5.30809100;2022-09-13T13:01:48;27.30;50.00
3332;DHT22;1678;50.94845400;5.30809100;2022-09-13T13:04:21;27.10;50.60
3332;DHT22;1678;50.94845400;5.30809100;2022-09-13T13:06:52;27.20;52.10
3332;DHT22;1678;50.94845400;5.30809100;2022-09-13T13:09:28;27.20;55.10
3332;DHT22;1678;50.94845400;5.30809100;2022-09-13T13:11:58;27.10;55.40
3332;DHT22;1678;50.94845400;5.30809100;2022-09-13T13:14:29;27.00;53.50
3332;DHT22;1678;50.94845400;5.30809100;2022-09-13T13:17:35;26.90;51.40
3332;DHT22;1678;50.94845400;5.30809100;2022-09-13T13:20:45;27.10;53.40
3332;DHT22;1678;50.94845400;5.30809100;2022-09-13T13:23:17;27.20;51.60
3332;DHT22;1678;50.94845400;5.30809100;2022-09-13T13:26:06;27.40;52.60
3332;DHT22;1678;50.94845400;5.30809100;2022-09-13T13:31:43;27.20;51.90
3332;DHT22;1678;50.94845400;5.30809100;2022-09-13T13:34:40;27.30;50.80
3332;DHT22;1678;50.94845400;5.30809100;2022-09-13T13:37:35;27.20;51.00
3332;DHT22;1678;50.94845400;5.30809100;2022-09-13T13:40:22;27.10;52.40
3332;DHT22;1678;50.94845400;5.30809100;2022-09-13T13:45:58;27.50;53.00
3332;DHT22;1678;50.94845400;5.30809100;2022-09-13T13:48:37;27.40;51.70
3332;DHT22;1678;50.94845400;5.30809100;2022-09-13T13:51:18;27.40;52.20
3332;DHT22;1678;50.94845400;5.30809100;2022-09-13T13:53:54;27.00;52.10
3332;DHT22;1678;50.94845400;5.30809100;2022-09-13T13:56:33;26.80;55.10
3332;DHT22;1678;50.94845400;5.30809100;2022-09-13T13:59:19;26.60;54.00
3332;DHT22;1678;50.94845400;5.30809100;2022-09-13T14:01:52;26.40;55.30
3332;DHT22;1678;50.94845400;5.30809100;2022-09-13T14:04:46;26.40;54.90
3332;DHT22;1678;50.94845400;5.30809100;2022-09-13T14:07:35;26.30;56.90
3332;DHT22;1678;50.94845400;5.30809100;2022-09-13T14:10:13;26.10;56.30
3332;DHT22;1678;50.94845400;5.30809100;2022-09-13T14:12:55;26.00;57.90
3332;DHT22;1678;50.94845400;5.30809100;2022-09-13T14:15:39;25.80;64.80
3332;DHT22;1678;50.94845400;5.30809100;2022-09-13T14:21:18;25.60;62.40
3332;DHT22;1678;50.94845400;5.30809100;2022-09-13T14:23:47;25.40;62.60
3332;DHT22;1678;50.94845400;5.30809100;2022-09-13T14:26:16;25.30;67.90
3332;DHT22;1678;50.94845400;5.30809100;2022-09-13T14:28:44;25.40;66.90
3332;DHT22;1678;50.94845400;5.30809100;2022-09-13T14:31:17;25.40;68.60
3332;DHT22;1678;50.94845400;5.30809100;2022-09-13T14:33:46;25.40;66.10
3332;DHT22;1678;50.94845400;5.30809100;2022-09-13T14:36:17;25.30;65.50
3332;DHT22;1678;50.94845400;5.30809100;2022-09-13T14:38:48;25.20;66.80